| time (UTC) | temp F | wind direction | speed MPH | gust MPH | rain 1hr in | rain 24hr in | rain mn in | humidity % | barometer mb |
| 20260509222503 | 73 | 207 | 4.0 | 11.0 | 0.00 | 0.00 | 0.00 | 44 | 1007.5 |
| 20260509222004 | 72 | 186 | 3.0 | 8.0 | 0.00 | 0.00 | 0.00 | 45 | 1007.6 |
| 20260509221503 | 71 | 161 | 2.0 | 7.0 | 0.00 | 0.00 | 0.00 | 47 | 1007.6 |
| 20260509220003 | 71 | 179 | 2.0 | 7.0 | 0.00 | 0.00 | 0.00 | 48 | 1007.7 |
| 20260509215503 | 71 | 187 | 2.0 | 7.0 | 0.00 | 0.00 | 0.00 | 46 | 1007.7 |
| 20260509214504 | 71 | 188 | 2.0 | 7.0 | 0.00 | 0.00 | 0.00 | 47 | 1007.6 |
| 20260509214004 | 71 | 173 | 2.0 | 7.0 | 0.00 | 0.00 | 0.00 | 46 | 1007.6 |
| 20260509213503 | 71 | 172 | 2.0 | 6.0 | 0.00 | 0.00 | 0.00 | 47 | 1007.5 |
| 20260509213004 | 71 | 187 | 2.0 | 7.0 | 0.00 | 0.00 | 0.00 | 47 | 1007.5 |
| 20260509212503 | 71 | 189 | 3.0 | 8.0 | 0.00 | 0.00 | 0.00 | 46 | 1007.5 |
| 20260509212003 | 71 | 194 | 3.0 | 11.0 | 0.00 | 0.00 | 0.00 | 47 | 1007.4 |
| 20260509211503 | 71 | 208 | 4.0 | 12.0 | 0.00 | 0.00 | 0.00 | 46 | 1007.4 |
| 20260509211004 | 71 | 219 | 4.0 | 13.0 | 0.00 | 0.00 | 0.00 | 47 | 1007.4 |
| 20260509210005 | 71 | 215 | 4.0 | 9.0 | 0.00 | 0.00 | 0.00 | 45 | 1007.3 |
| 20260509205503 | 71 | 206 | 3.0 | 8.0 | 0.00 | 0.00 | 0.00 | 46 | 1007.3 |
| 20260509205003 | 71 | 198 | 4.0 | 13.0 | 0.00 | 0.00 | 0.00 | 45 | 1007.3 |
| 20260509204503 | 71 | 184 | 4.0 | 13.0 | 0.00 | 0.00 | 0.00 | 45 | 1007.2 |
| 20260509204004 | 71 | 188 | 4.0 | 15.0 | 0.00 | 0.00 | 0.00 | 46 | 1007.2 |
| 20260509203503 | 72 | 201 | 4.0 | 15.0 | 0.00 | 0.00 | 0.00 | 46 | 1007.3 |
| 20260509203004 | 72 | 195 | 4.0 | 13.0 | 0.00 | 0.00 | 0.00 | 45 | 1007.1 |
| 20260509202502 | 72 | 201 | 4.0 | 11.0 | 0.00 | 0.00 | 0.00 | 46 | 1007.1 |
| 20260509202003 | 72 | 202 | 4.0 | 11.0 | 0.00 | 0.00 | 0.00 | 42 | 1007.1 |
| 20260509201503 | 71 | 191 | 4.0 | 11.0 | 0.00 | 0.00 | 0.00 | 45 | 1007.1 |
| 20260509201004 | 71 | 207 | 6.0 | 13.0 | 0.00 | 0.00 | 0.00 | 42 | 1007.0 |
| 20260509200503 | 71 | 208 | 6.0 | 13.0 | 0.00 | 0.00 | 0.00 | 44 | 1007.2 |
| 20260509200004 | 72 | 186 | 4.0 | 17.0 | 0.00 | 0.00 | 0.00 | 42 | 1007.1 |
| 20260509194503 | 72 | 212 | 6.0 | 16.0 | 0.00 | 0.00 | 0.00 | 44 | 1007.2 |
| 20260509194005 | 72 | 211 | 7.0 | 16.0 | 0.00 | 0.00 | 0.00 | 44 | 1007.4 |
| 20260509193503 | 73 | 214 | 6.0 | 12.0 | 0.00 | 0.00 | 0.00 | 42 | 1007.4 |
| 20260509193003 | 73 | 211 | 6.0 | 16.0 | 0.00 | 0.00 | 0.00 | 45 | 1007.5 |
| 20260509192503 | 73 | 201 | 8.0 | 19.0 | 0.00 | 0.00 | 0.00 | 46 | 1007.6 |
| 20260509192004 | 73 | 201 | 7.0 | 19.0 | 0.00 | 0.00 | 0.00 | 43 | 1007.6 |
| 20260509191503 | 73 | 223 | 6.0 | 11.0 | 0.00 | 0.00 | 0.00 | 49 | 1007.5 |
| 20260509191004 | 73 | 200 | 4.0 | 12.0 | 0.00 | 0.00 | 0.00 | 46 | 1007.6 |
| 20260509190503 | 73 | 184 | 6.0 | 17.0 | 0.00 | 0.00 | 0.00 | 46 | 1007.7 |
| 20260509190004 | 73 | 203 | 7.0 | 17.0 | 0.00 | 0.00 | 0.00 | 45 | 1007.8 |
| 20260509185504 | 73 | 203 | 6.0 | 16.0 | 0.00 | 0.00 | 0.00 | 47 | 1007.8 |
| 20260509185004 | 72 | 213 | 7.0 | 15.0 | 0.00 | 0.00 | 0.00 | 49 | 1007.8 |
| 20260509184503 | 72 | 206 | 6.0 | 15.0 | 0.00 | 0.00 | 0.00 | 49 | 1008.0 |
| 20260509184003 | 72 | 173 | 4.0 | 11.0 | 0.00 | 0.00 | 0.00 | 45 | 1008.1 |
| 20260509183503 | 72 | 190 | 4.0 | 11.0 | 0.00 | 0.00 | 0.00 | 46 | 1008.2 |
| 20260509182503 | 71 | 209 | 6.0 | 15.0 | 0.00 | 0.00 | 0.00 | 45 | 1008.3 |
| 20260509181503 | 70 | 199 | 6.0 | 19.0 | 0.00 | 0.00 | 0.00 | 48 | 1008.5 |
| 20260509181005 | 70 | 187 | 4.0 | 15.0 | 0.00 | 0.00 | 0.00 | 49 | 1008.5 |
| 20260509180503 | 70 | 193 | 4.0 | 12.0 | 0.00 | 0.00 | 0.00 | 49 | 1008.6 |
| 20260509180004 | 70 | 204 | 6.0 | 16.0 | 0.00 | 0.00 | 0.00 | 47 | 1008.7 |
| 20260509175503 | 70 | 202 | 6.0 | 16.0 | 0.00 | 0.00 | 0.00 | 53 | 1008.8 |
| 20260509175004 | 69 | 179 | 4.0 | 11.0 | 0.00 | 0.00 | 0.00 | 53 | 1008.9 |
| 20260509174503 | 69 | 175 | 3.0 | 11.0 | 0.00 | 0.00 | 0.00 | 50 | 1008.7 |
| 20260509173503 | 68 | 166 | 2.0 | 9.0 | 0.00 | 0.00 | 0.00 | 49 | 1008.9 |
| 20260509173003 | 68 | 185 | 2.0 | 8.0 | 0.00 | 0.00 | 0.00 | 52 | 1008.8 |
| 20260509172503 | 68 | 189 | 2.0 | 8.0 | 0.00 | 0.00 | 0.00 | 49 | 1009.0 |
| 20260509172004 | 68 | 195 | 2.0 | 7.0 | 0.00 | 0.00 | 0.00 | 51 | 1009.1 |
| 20260509171503 | 68 | 229 | 3.0 | 9.0 | 0.00 | 0.00 | 0.00 | 52 | 1009.3 |
| 20260509171004 | 67 | 243 | 4.0 | 9.0 | 0.00 | 0.00 | 0.00 | 52 | 1009.3 |
| 20260509170503 | 67 | 239 | 4.0 | 9.0 | 0.00 | 0.00 | 0.00 | 50 | 1009.3 |
| 20260509170004 | 67 | 233 | 4.0 | 10.0 | 0.00 | 0.00 | 0.00 | 50 | 1009.4 |
| 20260509165503 | 67 | 235 | 7.0 | 12.0 | 0.00 | 0.00 | 0.00 | 47 | 1009.3 |
| 20260509165004 | 68 | 228 | 6.0 | 12.0 | 0.00 | 0.00 | 0.00 | 48 | 1009.2 |
| 20260509164503 | 69 | 194 | 3.0 | 9.0 | 0.00 | 0.00 | 0.00 | 48 | 1009.2 |
| 20260509164004 | 69 | 176 | 3.0 | 10.0 | 0.00 | 0.00 | 0.00 | 50 | 1009.2 |
| 20260509163504 | 69 | 177 | 3.0 | 10.0 | 0.00 | 0.00 | 0.00 | 54 | 1009.2 |
| 20260509163004 | 69 | 194 | 4.0 | 9.0 | 0.00 | 0.00 | 0.00 | 49 | 1009.1 |
| 20260509162503 | 68 | 193 | 4.0 | 10.0 | 0.00 | 0.00 | 0.00 | 51 | 1009.1 |
| 20260509162004 | 68 | 208 | 6.0 | 15.0 | 0.00 | 0.00 | 0.00 | 52 | 1009.2 |
| 20260509161503 | 67 | 217 | 6.0 | 15.0 | 0.00 | 0.00 | 0.00 | 52 | 1009.2 |
| 20260509161004 | 68 | 212 | 6.0 | 12.0 | 0.00 | 0.00 | 0.00 | 49 | 1009.1 |
| 20260509160503 | 68 | 221 | 6.0 | 10.0 | 0.00 | 0.00 | 0.00 | 52 | 1009.2 |
| 20260509160003 | 68 | 228 | 6.0 | 12.0 | 0.00 | 0.00 | 0.00 | 56 | 1009.2 |
| 20260509155503 | 67 | 226 | 7.0 | 12.0 | 0.00 | 0.00 | 0.00 | 55 | 1009.1 |
| 20260509155004 | 67 | 231 | 7.0 | 12.0 | 0.00 | 0.00 | 0.00 | 52 | 1009.1 |
| 20260509154503 | 67 | 245 | 6.0 | 11.0 | 0.00 | 0.00 | 0.00 | 51 | 1009.1 |
| 20260509154004 | 67 | 235 | 6.0 | 10.0 | 0.00 | 0.00 | 0.00 | 51 | 1009.1 |
| 20260509153504 | 67 | 217 | 4.0 | 12.0 | 0.00 | 0.00 | 0.00 | 51 | 1009.0 |
| 20260509152503 | 67 | 222 | 6.0 | 11.0 | 0.00 | 0.00 | 0.00 | 49 | 1009.0 |
| 20260509152004 | 67 | 229 | 4.0 | 11.0 | 0.00 | 0.00 | 0.00 | 49 | 1008.9 |
| 20260509151004 | 67 | 224 | 6.0 | 12.0 | 0.00 | 0.00 | 0.00 | 50 | 1008.9 |
| 20260509150004 | 68 | 213 | 4.0 | 13.0 | 0.00 | 0.00 | 0.00 | 53 | 1009.1 |
| 20260509145503 | 67 | 225 | 6.0 | 13.0 | 0.00 | 0.00 | 0.00 | 52 | 1009.1 |
| 20260509145003 | 68 | 214 | 4.0 | 12.0 | 0.00 | 0.00 | 0.00 | 51 | 1009.0 |
| 20260509144503 | 68 | 183 | 3.0 | 9.0 | 0.00 | 0.00 | 0.00 | 52 | 1009.2 |
| 20260509144004 | 67 | 178 | 4.0 | 11.0 | 0.00 | 0.00 | 0.00 | 53 | 1009.1 |
| 20260509143503 | 67 | 178 | 4.0 | 11.0 | 0.00 | 0.00 | 0.00 | 54 | 1009.1 |
| 20260509143004 | 66 | 186 | 4.0 | 12.0 | 0.00 | 0.00 | 0.00 | 55 | 1009.2 |
| 20260509142003 | 65 | 195 | 6.0 | 16.0 | 0.00 | 0.00 | 0.00 | 57 | 1009.5 |
| 20260509141503 | 64 | 187 | 6.0 | 15.0 | 0.00 | 0.00 | 0.00 | 57 | 1009.6 |
| 20260509141004 | 63 | 181 | 6.0 | 17.0 | 0.00 | 0.00 | 0.00 | 59 | 1009.7 |
| 20260509140503 | 63 | 189 | 6.0 | 17.0 | 0.00 | 0.00 | 0.00 | 56 | 1009.7 |
| 20260509140005 | 64 | 192 | 6.0 | 13.0 | 0.00 | 0.00 | 0.00 | 58 | 1009.8 |
| 20260509135503 | 63 | 190 | 7.0 | 18.0 | 0.00 | 0.00 | 0.00 | 57 | 1009.9 |
| 20260509135004 | 63 | 192 | 6.0 | 18.0 | 0.00 | 0.00 | 0.00 | 58 | 1010.0 |
| 20260509134504 | 63 | 196 | 6.0 | 16.0 | 0.00 | 0.00 | 0.00 | 58 | 1010.1 |
| 20260509134003 | 62 | 199 | 7.0 | 18.0 | 0.00 | 0.00 | 0.00 | 58 | 1010.0 |
| 20260509133504 | 62 | 207 | 8.0 | 20.0 | 0.00 | 0.00 | 0.00 | 57 | 1010.1 |
| 20260509133004 | 62 | 210 | 9.0 | 21.0 | 0.00 | 0.00 | 0.00 | 57 | 1010.1 |
| 20260509132004 | 62 | 208 | 8.0 | 19.0 | 0.00 | 0.00 | 0.00 | 57 | 1010.1 |
| 20260509131004 | 62 | 205 | 7.0 | 19.0 | 0.00 | 0.00 | 0.00 | 57 | 1010.0 |
| 20260509130503 | 62 | 200 | 6.0 | 16.0 | 0.00 | 0.00 | 0.00 | 58 | 1010.0 |
| 20260509130005 | 62 | 192 | 4.0 | 13.0 | 0.00 | 0.00 | 0.00 | 57 | 1010.0 |
| 20260509125503 | 61 | 195 | 6.0 | 12.0 | 0.00 | 0.00 | 0.00 | 58 | 1009.8 |
| 20260509125004 | 61 | 213 | 6.0 | 11.0 | 0.00 | 0.00 | 0.00 | 58 | 1009.9 |
| 20260509124504 | 60 | 221 | 4.0 | 11.0 | 0.00 | 0.00 | 0.00 | 58 | 1010.0 |
| 20260509124004 | 60 | 221 | 6.0 | 13.0 | 0.00 | 0.00 | 0.00 | 60 | 1009.9 |
| 20260509123503 | 59 | 227 | 6.0 | 13.0 | 0.00 | 0.00 | 0.00 | 60 | 1009.9 |
| 20260509123004 | 59 | 234 | 6.0 | 11.0 | 0.00 | 0.00 | 0.00 | 59 | 1010.0 |
| 20260509122503 | 58 | 249 | 6.0 | 12.0 | 0.00 | 0.00 | 0.00 | 59 | 1010.1 |
| 20260509122004 | 59 | 247 | 8.0 | 16.0 | 0.00 | 0.00 | 0.00 | 57 | 1010.0 |
| 20260509121004 | 60 | 213 | 7.0 | 17.0 | 0.00 | 0.00 | 0.00 | 56 | 1010.1 |
| 20260509120004 | 60 | 207 | 4.0 | 12.0 | 0.00 | 0.00 | 0.00 | 55 | 1010.0 |
| 20260509115503 | 60 | 211 | 6.0 | 13.0 | 0.00 | 0.00 | 0.00 | 55 | 1009.9 |
| 20260509115004 | 59 | 212 | 6.0 | 13.0 | 0.00 | 0.00 | 0.00 | 56 | 1009.9 |
| 20260509114503 | 58 | 220 | 6.0 | 12.0 | 0.00 | 0.00 | 0.00 | 57 | 1010.0 |
| 20260509114004 | 58 | 232 | 6.0 | 12.0 | 0.00 | 0.00 | 0.00 | 56 | 1010.0 |
| 20260509113503 | 59 | 231 | 6.0 | 12.0 | 0.00 | 0.00 | 0.00 | 56 | 1010.0 |
| 20260509112503 | 59 | 226 | 3.0 | 12.0 | 0.00 | 0.00 | 0.00 | 55 | 1010.1 |
| 20260509112003 | 59 | 216 | 3.0 | 12.0 | 0.00 | 0.00 | 0.00 | 55 | 1010.1 |
| 20260509111503 | 59 | 219 | 3.0 | 9.0 | 0.00 | 0.00 | 0.00 | 54 | 1010.0 |
| 20260509111004 | 59 | 223 | 4.0 | 15.0 | 0.00 | 0.00 | 0.00 | 52 | 1010.0 |
| 20260509110503 | 60 | 215 | 6.0 | 15.0 | 0.00 | 0.00 | 0.00 | 52 | 1010.0 |
| 20260509110004 | 60 | 212 | 6.0 | 15.0 | 0.00 | 0.00 | 0.00 | 51 | 1010.1 |
| 20260509105503 | 60 | 206 | 4.0 | 10.0 | 0.00 | 0.00 | 0.00 | 51 | 1009.9 |
| 20260509105003 | 60 | 188 | 4.0 | 11.0 | 0.00 | 0.00 | 0.00 | 51 | 1010.0 |
| 20260509104503 | 60 | 184 | 4.0 | 11.0 | 0.00 | 0.00 | 0.00 | 51 | 1009.9 |
| 20260509104004 | 60 | 186 | 4.0 | 15.0 | 0.00 | 0.00 | 0.00 | 51 | 1009.9 |
| 20260509103503 | 60 | 187 | 4.0 | 15.0 | 0.00 | 0.00 | 0.00 | 51 | 1010.0 |
| 20260509103004 | 60 | 179 | 3.0 | 10.0 | 0.00 | 0.00 | 0.00 | 51 | 1010.0 |
| 20260509102504 | 60 | 178 | 3.0 | 9.0 | 0.00 | 0.00 | 0.00 | 50 | 1010.0 |
| 20260509102004 | 60 | 205 | 4.0 | 13.0 | 0.00 | 0.00 | 0.00 | 50 | 1009.9 |
| 20260509101503 | 60 | 209 | 6.0 | 13.0 | 0.00 | 0.00 | 0.00 | 49 | 1010.0 |
| 20260509101004 | 60 | 201 | 4.0 | 12.0 | 0.00 | 0.00 | 0.00 | 49 | 1010.0 |
| 20260509100503 | 60 | 203 | 6.0 | 21.0 | 0.00 | 0.00 | 0.00 | 48 | 1010.1 |
| 20260509100005 | 60 | 195 | 6.0 | 21.0 | 0.00 | 0.00 | 0.00 | 49 | 1010.0 |
| 20260509095503 | 60 | 186 | 4.0 | 16.0 | 0.00 | 0.00 | 0.00 | 49 | 1009.9 |
| 20260509095004 | 59 | 187 | 4.0 | 11.0 | 0.00 | 0.00 | 0.00 | 48 | 1009.9 |
| 20260509094503 | 59 | 189 | 4.0 | 12.0 | 0.00 | 0.00 | 0.00 | 48 | 1010.0 |
| 20260509094004 | 60 | 195 | 4.0 | 13.0 | 0.00 | 0.00 | 0.00 | 48 | 1010.1 |
| 20260509093503 | 60 | 197 | 4.0 | 15.0 | 0.00 | 0.00 | 0.00 | 47 | 1010.0 |
| 20260509093004 | 60 | 195 | 4.0 | 15.0 | 0.00 | 0.00 | 0.00 | 47 | 1010.1 |
| 20260509092003 | 60 | 196 | 6.0 | 19.0 | 0.00 | 0.00 | 0.00 | 46 | 1010.3 |
| 20260509091503 | 60 | 187 | 6.0 | 15.0 | 0.00 | 0.00 | 0.00 | 46 | 1010.2 |
| 20260509091004 | 60 | 179 | 4.0 | 15.0 | 0.00 | 0.00 | 0.00 | 46 | 1010.1 |
| 20260509090503 | 60 | 177 | 4.0 | 17.0 | 0.00 | 0.00 | 0.00 | 45 | 1010.1 |
| 20260509090004 | 60 | 179 | 4.0 | 17.0 | 0.00 | 0.00 | 0.00 | 45 | 1010.1 |
| 20260509085504 | 60 | 192 | 3.0 | 11.0 | 0.00 | 0.00 | 0.00 | 45 | 1010.2 |
| 20260509085004 | 60 | 195 | 4.0 | 13.0 | 0.00 | 0.00 | 0.00 | 45 | 1010.3 |
| 20260509084503 | 60 | 189 | 4.0 | 13.0 | 0.00 | 0.00 | 0.00 | 45 | 1010.3 |
| 20260509084004 | 60 | 186 | 4.0 | 16.0 | 0.00 | 0.00 | 0.00 | 44 | 1010.3 |
| 20260509083503 | 60 | 186 | 4.0 | 16.0 | 0.00 | 0.00 | 0.00 | 44 | 1010.3 |
| 20260509083004 | 60 | 183 | 4.0 | 16.0 | 0.00 | 0.00 | 0.00 | 44 | 1010.4 |
| 20260509082003 | 60 | 188 | 6.0 | 17.0 | 0.00 | 0.00 | 0.00 | 43 | 1010.5 |
| 20260509081503 | 60 | 198 | 6.0 | 17.0 | 0.00 | 0.00 | 0.00 | 43 | 1010.6 |
| 20260509080503 | 60 | 191 | 6.0 | 25.0 | 0.00 | 0.00 | 0.00 | 44 | 1010.6 |
| 20260509080004 | 60 | 196 | 6.0 | 25.0 | 0.00 | 0.00 | 0.00 | 43 | 1010.6 |
| 20260509075503 | 60 | 193 | 6.0 | 16.0 | 0.00 | 0.00 | 0.00 | 43 | 1010.5 |
| 20260509075005 | 60 | 187 | 6.0 | 16.0 | 0.00 | 0.00 | 0.00 | 43 | 1010.6 |
| 20260509074504 | 60 | 195 | 7.0 | 18.0 | 0.00 | 0.00 | 0.00 | 43 | 1010.6 |
| 20260509073503 | 61 | 203 | 9.0 | 22.0 | 0.00 | 0.00 | 0.00 | 42 | 1010.7 |
| 20260509073004 | 61 | 203 | 9.0 | 22.0 | 0.00 | 0.00 | 0.00 | 41 | 1010.9 |
| 20260509072504 | 61 | 203 | 9.0 | 25.0 | 0.00 | 0.00 | 0.00 | 42 | 1010.8 |
| 20260509072005 | 61 | 201 | 9.0 | 25.0 | 0.00 | 0.00 | 0.00 | 42 | 1010.9 |
| 20260509071004 | 61 | 197 | 7.0 | 19.0 | 0.00 | 0.00 | 0.00 | 41 | 1010.8 |
| 20260509070503 | 61 | 196 | 7.0 | 21.0 | 0.00 | 0.00 | 0.00 | 42 | 1010.9 |
| 20260509065503 | 61 | 187 | 4.0 | 15.0 | 0.00 | 0.00 | 0.00 | 42 | 1010.9 |
| 20260509065004 | 61 | 184 | 4.0 | 15.0 | 0.00 | 0.00 | 0.00 | 41 | 1010.9 |
| 20260509064503 | 61 | 185 | 6.0 | 13.0 | 0.00 | 0.00 | 0.00 | 42 | 1010.8 |
| 20260509064004 | 61 | 184 | 4.0 | 13.0 | 0.00 | 0.00 | 0.00 | 41 | 1010.9 |
| 20260509063503 | 60 | 181 | 4.0 | 12.0 | 0.00 | 0.00 | 0.00 | 41 | 1010.8 |
| 20260509063005 | 61 | 179 | 4.0 | 17.0 | 0.00 | 0.00 | 0.00 | 42 | 1011.0 |
| 20260509062504 | 61 | 176 | 6.0 | 17.0 | 0.00 | 0.00 | 0.00 | 42 | 1011.1 |
| 20260509062004 | 60 | 176 | 6.0 | 17.0 | 0.00 | 0.00 | 0.00 | 42 | 1011.1 |
| 20260509061504 | 60 | 178 | 4.0 | 17.0 | 0.00 | 0.00 | 0.00 | 42 | 1011.1 |
| 20260509061005 | 60 | 176 | 4.0 | 12.0 | 0.00 | 0.00 | 0.00 | 41 | 1011.1 |
| 20260509060503 | 61 | 177 | 6.0 | 15.0 | 0.00 | 0.00 | 0.00 | 41 | 1011.2 |
| 20260509060005 | 60 | 185 | 6.0 | 16.0 | 0.00 | 0.00 | 0.00 | 41 | 1011.3 |
| 20260509055502 | 60 | 195 | 6.0 | 18.0 | 0.00 | 0.00 | 0.00 | 41 | 1011.3 |
| 20260509055003 | 60 | 199 | 7.0 | 18.0 | 0.00 | 0.00 | 0.00 | 42 | 1011.3 |
| 20260509054502 | 60 | 201 | 4.0 | 16.0 | 0.00 | 0.00 | 0.00 | 43 | 1011.5 |
| 20260509054003 | 60 | 202 | 4.0 | 13.0 | 0.00 | 0.00 | 0.00 | 43 | 1011.5 |
| 20260509053502 | 60 | 202 | 4.0 | 13.0 | 0.00 | 0.00 | 0.00 | 43 | 1011.5 |
| 20260509053003 | 59 | 206 | 6.0 | 13.0 | 0.00 | 0.00 | 0.00 | 44 | 1011.5 |
| 20260509052502 | 59 | 215 | 6.0 | 16.0 | 0.00 | 0.00 | 0.00 | 45 | 1011.5 |
| 20260509052002 | 59 | 222 | 7.0 | 16.0 | 0.00 | 0.00 | 0.00 | 45 | 1011.4 |
| 20260509051501 | 58 | 223 | 7.0 | 12.0 | 0.00 | 0.00 | 0.00 | 46 | 1011.6 |
| 20260509051003 | 58 | 227 | 7.0 | 11.0 | 0.00 | 0.00 | 0.00 | 48 | 1011.5 |
| 20260509050502 | 58 | 227 | 7.0 | 13.0 | 0.00 | 0.00 | 0.00 | 48 | 1011.6 |
| 20260509050002 | 58 | 226 | 7.0 | 13.0 | 0.00 | 0.00 | 0.00 | 47 | 1011.5 |
| 20260509045003 | 57 | 232 | 6.0 | 10.0 | 0.00 | 0.00 | 0.00 | 50 | 1011.5 |
| 20260509044502 | 57 | 238 | 6.0 | 9.0 | 0.00 | 0.00 | 0.00 | 49 | 1011.5 |
| 20260509044002 | 58 | 239 | 4.0 | 9.0 | 0.00 | 0.00 | 0.00 | 48 | 1011.4 |
| 20260509043502 | 58 | 234 | 4.0 | 9.0 | 0.00 | 0.00 | 0.00 | 48 | 1011.4 |
| 20260509041502 | 60 | 216 | 6.0 | 16.0 | 0.00 | 0.00 | 0.00 | 43 | 1011.2 |
| 20260509041003 | 61 | 215 | 7.0 | 15.0 | 0.00 | 0.00 | 0.00 | 44 | 1011.3 |
| 20260509040502 | 60 | 219 | 6.0 | 13.0 | 0.00 | 0.00 | 0.00 | 44 | 1011.3 |
| 20260509040005 | 60 | 222 | 4.0 | 13.0 | 0.00 | 0.00 | 0.00 | 45 | 1011.3 |
| 20260509035503 | 60 | 219 | 4.0 | 11.0 | 0.00 | 0.00 | 0.00 | 45 | 1011.4 |
| 20260509035003 | 61 | 216 | 4.0 | 12.0 | 0.00 | 0.00 | 0.00 | 44 | 1011.3 |
| 20260509033003 | 61 | 189 | 4.0 | 11.0 | 0.00 | 0.00 | 0.00 | 44 | 1011.4 |
| 20260509032502 | 60 | 181 | 3.0 | 11.0 | 0.00 | 0.00 | 0.00 | 45 | 1011.4 |
| 20260509032003 | 60 | 182 | 3.0 | 10.0 | 0.00 | 0.00 | 0.00 | 44 | 1011.4 |
| 20260509031502 | 60 | 181 | 2.0 | 10.0 | 0.00 | 0.00 | 0.00 | 45 | 1011.4 |
| 20260509031003 | 60 | 188 | 2.0 | 7.0 | 0.00 | 0.00 | 0.00 | 45 | 1011.5 |
| 20260509030502 | 60 | 188 | 3.0 | 12.0 | 0.00 | 0.00 | 0.00 | 45 | 1011.4 |
| 20260509030003 | 60 | 196 | 3.0 | 12.0 | 0.00 | 0.00 | 0.00 | 45 | 1011.5 |
| 20260509025004 | 61 | 192 | 3.0 | 10.0 | 0.00 | 0.00 | 0.00 | 44 | 1011.6 |
| 20260509024003 | 61 | 202 | 4.0 | 15.0 | 0.00 | 0.00 | 0.00 | 43 | 1011.6 |
| 20260509023502 | 62 | 215 | 7.0 | 18.0 | 0.00 | 0.00 | 0.00 | 43 | 1011.6 |
| 20260509023003 | 62 | 216 | 7.0 | 18.0 | 0.00 | 0.00 | 0.00 | 43 | 1011.6 |
| 20260509022502 | 62 | 213 | 6.0 | 13.0 | 0.00 | 0.00 | 0.00 | 43 | 1011.6 |
| 20260509022003 | 61 | 218 | 7.0 | 13.0 | 0.00 | 0.00 | 0.00 | 45 | 1011.6 |
| 20260509021502 | 61 | 218 | 6.0 | 13.0 | 0.00 | 0.00 | 0.00 | 46 | 1011.6 |
| 20260509021004 | 61 | 217 | 6.0 | 12.0 | 0.00 | 0.00 | 0.00 | 45 | 1011.5 |
| 20260509020502 | 60 | 224 | 4.0 | 8.0 | 0.00 | 0.00 | 0.00 | 48 | 1011.4 |
| 20260509020002 | 60 | 228 | 4.0 | 12.0 | 0.00 | 0.00 | 0.00 | 46 | 1011.3 |
| 20260509015502 | 62 | 217 | 6.0 | 15.0 | 0.00 | 0.00 | 0.00 | 45 | 1011.3 |
| 20260509015002 | 62 | 194 | 3.0 | 15.0 | 0.00 | 0.00 | 0.00 | 44 | 1011.3 |
| 20260509014502 | 61 | 193 | 3.0 | 10.0 | 0.00 | 0.00 | 0.00 | 44 | 1011.2 |
| 20260509014004 | 62 | 184 | 3.0 | 10.0 | 0.00 | 0.00 | 0.00 | 44 | 1011.1 |
| 20260509013502 | 61 | 181 | 2.0 | 9.0 | 0.00 | 0.00 | 0.00 | 45 | 1011.3 |
| 20260509013004 | 62 | 185 | 3.0 | 9.0 | 0.00 | 0.00 | 0.00 | 44 | 1011.1 |
| 20260509012002 | 62 | 168 | 4.0 | 13.0 | 0.00 | 0.00 | 0.00 | 44 | 1011.1 |
| 20260509011003 | 61 | 176 | 3.0 | 10.0 | 0.00 | 0.00 | 0.00 | 45 | 1011.2 |
| 20260509010502 | 61 | 175 | 3.0 | 10.0 | 0.00 | 0.00 | 0.00 | 45 | 1011.1 |
| 20260509005502 | 62 | 179 | 3.0 | 10.0 | 0.00 | 0.00 | 0.00 | 44 | 1011.1 |
| 20260509005003 | 62 | 177 | 3.0 | 10.0 | 0.00 | 0.00 | 0.00 | 45 | 1011.2 |
| 20260509004502 | 62 | 171 | 3.0 | 10.0 | 0.00 | 0.00 | 0.00 | 44 | 1011.1 |
| 20260509004003 | 62 | 177 | 3.0 | 10.0 | 0.00 | 0.00 | 0.00 | 44 | 1011.1 |
| 20260509003502 | 62 | 174 | 3.0 | 11.0 | 0.00 | 0.00 | 0.00 | 45 | 1011.0 |
| 20260509003002 | 62 | 182 | 3.0 | 11.0 | 0.00 | 0.00 | 0.00 | 44 | 1010.9 |
| 20260509002502 | 62 | 204 | 3.0 | 9.0 | 0.00 | 0.00 | 0.00 | 44 | 1010.9 |
| 20260509002004 | 62 | 200 | 2.0 | 7.0 | 0.00 | 0.00 | 0.00 | 44 | 1010.9 |
| 20260509001502 | 62 | 191 | 2.0 | 8.0 | 0.00 | 0.00 | 0.00 | 44 | 1010.8 |
| 20260509001003 | 63 | 190 | 3.0 | 10.0 | 0.00 | 0.00 | 0.00 | 44 | 1010.7 |
| 20260509000502 | 63 | 186 | 2.0 | 10.0 | 0.00 | 0.00 | 0.00 | 43 | 1010.7 |
| 20260509000004 | 63 | 173 | 2.0 | 7.0 | 0.00 | 0.00 | 0.00 | 44 | 1010.6 |
| 20260508235502 | 63 | 161 | 2.0 | 7.0 | 0.00 | 0.00 | 0.00 | 43 | 1010.6 |
| 20260508235003 | 64 | 164 | 2.0 | 7.0 | 0.00 | 0.00 | 0.00 | 43 | 1010.6 |
| 20260508234502 | 64 | 166 | 3.0 | 7.0 | 0.00 | 0.00 | 0.00 | 42 | 1010.6 |
| 20260508234003 | 64 | 165 | 2.0 | 7.0 | 0.00 | 0.00 | 0.00 | 42 | 1010.6 |
| 20260508233502 | 65 | 165 | 2.0 | 7.0 | 0.00 | 0.00 | 0.00 | 42 | 1010.5 |
| 20260508233003 | 66 | 164 | 3.0 | 9.0 | 0.00 | 0.00 | 0.00 | 39 | 1010.5 |
| 20260508232502 | 66 | 159 | 3.0 | 9.0 | 0.00 | 0.00 | 0.00 | 39 | 1010.5 |
| 20260508232002 | 66 | 162 | 3.0 | 9.0 | 0.00 | 0.00 | 0.00 | 39 | 1010.4 |
| 20260508231003 | 66 | 164 | 4.0 | 13.0 | 0.00 | 0.00 | 0.00 | 39 | 1010.5 |
| 20260508230502 | 66 | 164 | 4.0 | 13.0 | 0.00 | 0.00 | 0.00 | 38 | 1010.5 |
| 20260508230004 | 68 | 166 | 3.0 | 10.0 | 0.00 | 0.00 | 0.00 | 37 | 1010.5 |
| 20260508225502 | 68 | 177 | 2.0 | 9.0 | 0.00 | 0.00 | 0.00 | 37 | 1010.5 |
| 20260508224503 | 68 | 214 | 4.0 | 10.0 | 0.00 | 0.00 | 0.00 | 36 | 1010.5 |
| 20260508224003 | 68 | 204 | 3.0 | 10.0 | 0.00 | 0.00 | 0.00 | 34 | 1010.4 |
| 20260508223503 | 69 | 186 | 4.0 | 13.0 | 0.00 | 0.00 | 0.00 | 34 | 1010.4 |
| 20260508223003 | 70 | 201 | 6.0 | 16.0 | 0.00 | 0.00 | 0.00 | 33 | 1010.3 |